Time;durP1;ratioP1;P1;durP2;ratioP2;P2;SDS_P1;SDS_P2;PMS_P1;PMS_P2;Temp;Humidity;BMP_temperature;BMP_pressure;BME280_temperature;BME280_humidity;BME280_pressure;Samples;Min_cycle;Max_cycle;Signal;HPM_P1;HPM_P2
2023/03/29 00:01:05;;;;;;;19.83;14.48;;;10.80;77.30;;;;;;4590590;19;20017;-33
2023/03/29 00:02:36;;;;;;;21.77;13.87;;;10.80;77.20;;;;;;4589406;19;20015;-33
2023/03/29 00:04:08;;;;;;;18.35;13.30;;;10.80;76.70;;;;;;4590739;19;20531;-33
2023/03/29 00:05:41;;;;;;;19.13;13.10;;;10.80;76.80;;;;;;4591100;19;20019;-32
2023/03/29 00:07:12;;;;;;;;;;;10.80;77.10;;;;;;4591650;19;20485;-34
2023/03/29 00:08:44;;;;;;;20.67;13.00;;;10.80;77.60;;;;;;4587924;19;19923;-33
2023/03/29 00:10:17;;;;;;;17.90;11.80;;;10.80;77.10;;;;;;4589336;19;20010;-33
2023/03/29 00:11:49;;;;;;;;;;;10.80;77.10;;;;;;4592154;19;21090;-33
2023/03/29 00:13:21;;;;;;;20.33;13.02;;;10.80;77.00;;;;;;4590363;19;20340;-32
2023/03/29 00:14:52;;;;;;;17.02;13.02;;;10.80;77.20;;;;;;4589476;19;20089;-32
2023/03/29 00:16:24;;;;;;;17.33;12.43;;;10.80;77.30;;;;;;4590668;19;20015;-34
2023/03/29 00:17:56;;;;;;;16.80;10.65;;;10.80;77.50;;;;;;4590483;19;20456;-33
2023/03/29 00:19:34;;;;;;;16.50;11.37;;;10.70;77.50;;;;;;4589190;19;20405;-32
2023/03/29 00:21:05;;;;;;;20.60;11.40;;;10.80;77.40;;;;;;4588935;19;20456;-33
2023/03/29 00:22:41;;;;;;;19.90;12.43;;;10.80;77.40;;;;;;4589145;19;20763;-33
2023/03/29 00:24:12;;;;;;;19.53;10.87;;;10.80;77.30;;;;;;4588822;19;20437;-32
2023/03/29 00:25:44;;;;;;;22.02;10.05;;;10.80;77.50;;;;;;4589635;19;20464;-33
2023/03/29 00:27:15;;;;;;;18.63;10.90;;;10.80;77.40;;;;;;4590624;19;20011;-33
2023/03/29 00:28:47;;;;;;;18.13;10.87;;;10.70;77.30;;;;;;4588442;19;20078;-33
2023/03/29 00:30:20;;;;;;;21.03;12.67;;;10.70;77.50;;;;;;4588772;19;20484;-34
2023/03/29 00:31:53;;;;;;;19.88;11.23;;;10.70;77.50;;;;;;4589679;19;20432;-33
2023/03/29 00:33:26;;;;;;;17.50;10.33;;;10.70;77.30;;;;;;4590499;19;20025;-33
2023/03/29 00:35:03;;;;;;;19.80;9.97;;;10.80;77.30;;;;;;4588832;19;20460;-36
2023/03/29 00:36:35;;;;;;;19.70;10.03;;;10.70;77.50;;;;;;4588837;19;21066;-34
2023/03/29 00:38:07;;;;;;;17.57;10.27;;;10.70;77.30;;;;;;4589557;19;20441;-33
2023/03/29 00:39:41;;;;;;;27.97;15.50;;;10.70;77.20;;;;;;4589099;19;20463;-33
2023/03/29 00:41:14;;;;;;;25.07;13.43;;;10.70;77.40;;;;;;4589911;19;20463;-33
2023/03/29 00:42:48;;;;;;;17.37;9.20;;;10.70;77.60;;;;;;4589760;19;20447;-33
2023/03/29 00:44:55;;;;;;;20.38;11.55;;;10.70;77.50;;;;;;4588548;19;20413;-34
2023/03/29 00:46:29;;;;;;;18.03;9.43;;;10.70;77.50;;;;;;4587816;19;20026;-33
2023/03/29 00:48:02;;;;;;;17.77;9.77;;;10.70;77.40;;;;;;4587040;19;20510;-33
2023/03/29 00:49:37;;;;;;;16.20;8.60;;;10.70;77.70;;;;;;4588294;19;20397;-34
2023/03/29 00:51:09;;;;;;;14.13;7.75;;;10.70;77.50;;;;;;4587220;19;20793;-33
2023/03/29 00:52:43;;;;;;;16.80;8.87;;;10.70;77.50;;;;;;4587430;19;20011;-33
2023/03/29 00:54:17;;;;;;;15.03;8.80;;;10.70;77.80;;;;;;4587710;19;20433;-35
2023/03/29 00:56:01;;;;;;;12.13;7.80;;;10.70;77.50;;;;;;4588165;19;20720;-36
2023/03/29 00:57:32;;;;;;;11.10;6.13;;;10.70;77.30;;;;;;4587458;19;20412;-33
2023/03/29 00:59:05;;;;;;;12.98;7.65;;;10.70;77.20;;;;;;4587229;19;21013;-34
2023/03/29 01:00:39;;;;;;;14.80;9.00;;;10.70;77.50;;;;;;4587779;19;20111;-35
2023/03/29 01:02:12;;;;;;;17.53;9.90;;;10.70;76.90;;;;;;4587844;19;20428;-33
2023/03/29 01:03:48;;;;;;;17.93;10.07;;;10.70;77.10;;;;;;4587332;19;20799;-32
2023/03/29 01:05:31;;;;;;;14.53;10.33;;;10.70;77.50;;;;;;4587307;19;20485;-34
2023/03/29 01:07:16;;;;;;;20.87;10.93;;;10.70;77.30;;;;;;4587294;19;21013;-34
2023/03/29 01:08:51;;;;;;;19.60;10.83;;;10.70;77.40;;;;;;4585774;19;20452;-33
2023/03/29 01:10:35;;;;;;;21.27;11.67;;;10.70;77.20;;;;;;4587733;19;20568;-34
2023/03/29 01:12:17;;;;;;;22.90;11.43;;;10.70;77.90;;;;;;4587803;19;20385;-36
2023/03/29 01:13:58;;;;;;;19.47;11.73;;;10.70;77.60;;;;;;4586988;19;20429;-33
2023/03/29 01:15:30;;;;;;;17.73;11.13;;;10.70;77.20;;;;;;4587310;19;20465;-33
2023/03/29 01:17:03;;;;;;;16.77;9.45;;;10.70;77.10;;;;;;4587113;19;20564;-34
2023/03/29 01:18:35;;;;;;;13.40;8.37;;;10.70;77.70;;;;;;4587536;19;20480;-34
2023/03/29 01:20:13;;;;;;;14.70;9.00;;;10.60;77.00;;;;;;4587306;19;20464;-33
2023/03/29 01:21:54;;;;;;;12.77;8.40;;;10.60;77.00;;;;;;4590230;19;20444;-32
2023/03/29 01:23:44;;;;;;;14.80;8.67;;;10.60;76.70;;;;;;4591396;19;21231;-33
2023/03/29 01:25:37;;;;;;;13.13;7.50;;;10.60;77.00;;;;;;4592908;19;20409;-33
2023/03/29 01:27:31;;;;;;;15.03;8.50;;;10.60;77.10;;;;;;4592572;19;20814;-33
2023/03/29 01:29:25;;;;;;;15.37;8.53;;;10.60;78.00;;;;;;4593118;19;20408;-34
2023/03/29 01:31:07;;;;;;;16.67;8.63;;;10.60;77.60;;;;;;4592515;19;20433;-32
2023/03/29 01:32:46;;;;;;;16.85;9.18;;;10.60;77.50;;;;;;4593485;19;20569;-32
2023/03/29 01:34:42;;;;;;;13.80;8.27;;;10.50;77.60;;;;;;4592659;19;20360;-32
2023/03/29 01:36:22;;;;;;;19.00;8.67;;;10.60;77.70;;;;;;4592357;19;21017;-32
2023/03/29 01:38:18;;;;;;;18.03;9.97;;;10.60;77.50;;;;;;4593079;19;20498;-33
2023/03/29 01:39:50;;;;;;;14.73;8.53;;;10.50;77.30;;;;;;4593092;19;20915;-33
2023/03/29 01:41:44;;;;;;;13.43;8.30;;;10.60;77.40;;;;;;4593132;19;20453;-33
2023/03/29 01:43:30;;;;;;;16.33;9.65;;;10.50;77.60;;;;;;4592214;19;20519;-35
2023/03/29 01:45:22;;;;;;;17.03;8.73;;;10.50;77.20;;;;;;4593137;19;20023;-33
2023/03/29 01:47:16;;;;;;;16.20;8.88;;;10.50;77.10;;;;;;4592022;19;20827;-34
2023/03/29 01:49:03;;;;;;;16.90;10.20;;;10.50;77.40;;;;;;4589470;19;20011;-34
2023/03/29 01:50:43;;;;;;;18.33;9.70;;;10.50;77.70;;;;;;4590596;19;20448;-33
2023/03/29 01:52:17;;;;;;;16.50;10.33;;;10.60;77.60;;;;;;4591363;19;20502;-33
2023/03/29 01:53:51;;;;;;;15.90;10.10;;;10.60;77.30;;;;;;4590897;19;20555;-32
2023/03/29 01:55:30;;;;;;;17.00;8.87;;;10.60;77.00;;;;;;4590796;19;20475;-34
2023/03/29 01:57:04;;;;;;;14.10;9.07;;;10.60;77.30;;;;;;4591205;19;20466;-34
2023/03/29 01:58:37;;;;;;;;;;;10.60;77.00;;;;;;4592036;19;20482;-34
2023/03/29 02:00:30;;;;;;;17.60;9.53;;;10.60;77.20;;;;;;4590990;19;19927;-33
2023/03/29 02:02:03;;;;;;;15.77;9.13;;;10.60;77.20;;;;;;4590613;19;20485;-33
2023/03/29 02:03:41;;;;;;;14.27;8.70;;;10.60;77.00;;;;;;4590787;19;20019;-33
2023/03/29 02:05:13;;;;;;;14.97;7.83;;;10.60;76.90;;;;;;4590259;19;20455;-32
2023/03/29 02:06:45;;;;;;;14.07;7.83;;;10.60;76.90;;;;;;4590926;19;20559;-32
2023/03/29 02:08:17;;;;;;;14.93;7.60;;;10.60;77.00;;;;;;4589251;19;21089;-33
2023/03/29 02:09:51;;;;;;;13.50;8.20;;;10.60;76.80;;;;;;4590286;19;20473;-34
2023/03/29 02:11:23;;;;;;;15.50;8.50;;;10.60;76.80;;;;;;4590665;19;21009;-33
2023/03/29 02:12:56;;;;;;;14.60;7.27;;;10.60;76.90;;;;;;4590766;19;20416;-32
2023/03/29 02:14:29;;;;;;;13.27;7.40;;;10.60;76.80;;;;;;4590036;19;20428;-34
2023/03/29 02:16:08;;;;;;;15.27;7.63;;;10.60;77.20;;;;;;4590226;19;20445;-34
2023/03/29 02:17:40;;;;;;;13.80;7.20;;;10.60;77.20;;;;;;4590198;19;20587;-32
2023/03/29 02:19:11;;;;;;;12.07;7.63;;;10.60;76.80;;;;;;4590497;19;20551;-33
2023/03/29 02:20:46;;;;;;;13.97;8.30;;;10.60;76.90;;;;;;4589786;19;20086;-33
2023/03/29 02:22:21;;;;;;;14.67;8.33;;;10.60;76.90;;;;;;4590047;19;20524;-33
2023/03/29 02:23:53;;;;;;;14.20;7.83;;;10.60;77.10;;;;;;4589290;19;20499;-34
2023/03/29 02:25:25;;;;;;;13.70;7.30;;;10.70;76.60;;;;;;4590320;19;20452;-32
2023/03/29 02:26:57;;;;;;;10.88;7.30;;;10.60;77.00;;;;;;4590044;19;21192;-34
2023/03/29 02:28:30;;;;;;;11.20;7.53;;;10.60;77.00;;;;;;4589120;19;20015;-32
2023/03/29 02:30:03;;;;;;;12.73;8.50;;;10.60;76.90;;;;;;4590420;19;20494;-33
2023/03/29 02:31:39;;;;;;;14.53;8.23;;;10.70;76.80;;;;;;4590159;19;20433;-32
2023/03/29 02:33:15;;;;;;;13.63;7.57;;;10.70;77.10;;;;;;4588682;19;20441;-32
2023/03/29 02:34:57;;;;;;;13.40;7.97;;;10.60;76.60;;;;;;4590344;19;21001;-34
2023/03/29 02:36:49;;;;;;;14.03;8.27;;;10.60;76.60;;;;;;4590578;19;21045;-34
2023/03/29 02:38:24;;;;;;;12.40;7.50;;;10.60;76.70;;;;;;4592316;19;20733;-35
2023/03/29 02:39:57;;;;;;;12.67;8.50;;;10.60;76.60;;;;;;4591970;19;20432;-33
2023/03/29 02:41:29;;;;;;;11.97;7.33;;;10.60;76.60;;;;;;4591087;19;20472;-32
2023/03/29 02:43:01;;;;;;;14.88;8.45;;;10.60;76.40;;;;;;4591054;19;20870;-35
2023/03/29 02:44:37;;;;;;;13.97;7.70;;;10.60;76.50;;;;;;4591775;19;20528;-35
2023/03/29 02:46:10;;;;;;;13.20;7.77;;;10.60;76.80;;;;;;4592289;19;20432;-33
2023/03/29 02:47:47;;;;;;;11.48;6.80;;;10.60;76.50;;;;;;4590673;19;21035;-33
2023/03/29 02:49:18;;;;;;;14.60;8.23;;;10.50;76.30;;;;;;4591069;19;20031;-32
2023/03/29 02:50:51;;;;;;;15.40;8.65;;;10.50;77.90;;;;;;4590872;19;20452;-33
2023/03/29 02:52:24;;;;;;;12.73;7.50;;;10.40;76.80;;;;;;4591366;19;20044;-33
2023/03/29 02:54:07;;;;;;;15.07;8.33;;;10.40;76.60;;;;;;4590647;19;20468;-33
2023/03/29 02:55:38;;;;;;;14.85;8.50;;;10.40;76.70;;;;;;4590903;19;20528;-33
2023/03/29 02:57:11;;;;;;;12.77;7.83;;;10.50;76.80;;;;;;4592124;19;20497;-34
2023/03/29 02:58:42;;;;;;;;;;;10.50;76.70;;;;;;4593339;19;20437;-33
2023/03/29 03:00:18;;;;;;;15.27;8.47;;;10.50;76.80;;;;;;4591515;19;20230;-33
2023/03/29 03:01:51;;;;;;;15.67;9.00;;;10.50;76.60;;;;;;4590553;19;20014;-33
2023/03/29 03:03:26;;;;;;;16.63;8.77;;;10.50;76.80;;;;;;4590908;19;20421;-34
2023/03/29 03:04:58;;;;;;;17.23;9.00;;;10.50;76.70;;;;;;4590838;19;20417;-33
2023/03/29 03:06:29;;;;;;;14.95;9.38;;;10.50;76.70;;;;;;4591442;19;20425;-34
2023/03/29 03:08:01;;;;;;;13.60;8.90;;;10.50;76.50;;;;;;4591455;19;20070;-33
2023/03/29 03:09:34;;;;;;;19.90;10.73;;;10.50;76.60;;;;;;4592011;19;20040;-34
2023/03/29 03:11:07;;;;;;;16.83;9.77;;;10.40;76.20;;;;;;4591847;19;20436;-33
2023/03/29 03:12:40;;;;;;;17.07;10.83;;;10.50;76.40;;;;;;4591560;19;20437;-33
2023/03/29 03:14:12;;;;;;;17.00;9.30;;;10.40;76.40;;;;;;4591424;19;20421;-34
2023/03/29 03:15:47;;;;;;;17.08;10.32;;;10.50;76.10;;;;;;4590102;19;20477;-32
2023/03/29 03:17:19;;;;;;;14.13;9.07;;;10.50;75.90;;;;;;4590749;19;20015;-32
2023/03/29 03:18:52;;;;;;;18.33;9.37;;;10.50;76.00;;;;;;4591061;19;20488;-34
2023/03/29 03:20:23;;;;;;;15.77;9.27;;;10.40;76.20;;;;;;4591644;19;20429;-32
2023/03/29 03:21:56;;;;;;;18.07;9.27;;;10.40;75.90;;;;;;4587819;19;20433;-34
2023/03/29 03:23:29;;;;;;;16.23;9.07;;;10.40;75.70;;;;;;4590467;19;20464;-32
2023/03/29 03:25:00;;;;;;;16.17;9.70;;;10.40;76.10;;;;;;4591112;19;20489;-37
2023/03/29 03:26:32;;;;;;;20.02;9.68;;;10.40;76.10;;;;;;4590681;19;20468;-38
2023/03/29 03:28:03;;;;;;;17.48;10.00;;;10.40;76.00;;;;;;4590407;19;20025;-33
2023/03/29 03:29:37;;;;;;;16.95;10.70;;;10.40;76.00;;;;;;4591029;19;20035;-33
2023/03/29 03:31:08;;;;;;;19.57;12.20;;;10.40;76.00;;;;;;4591183;19;20042;-32
2023/03/29 03:32:42;;;;;;;19.13;11.00;;;10.40;76.30;;;;;;4591501;19;20478;-33
2023/03/29 03:34:14;;;;;;;21.77;13.13;;;10.40;76.10;;;;;;4591310;19;20421;-33
2023/03/29 03:35:47;;;;;;;19.83;10.27;;;10.40;76.30;;;;;;4590901;19;20548;-32
2023/03/29 03:37:18;;;;;;;20.58;10.35;;;10.40;76.40;;;;;;4589996;19;20421;-33
2023/03/29 03:38:50;;;;;;;22.23;11.63;;;10.40;76.30;;;;;;4590626;19;20077;-34
2023/03/29 03:40:22;;;;;;;22.27;10.73;;;10.40;76.30;;;;;;4590177;19;20021;-34
2023/03/29 03:41:54;;;;;;;21.60;10.17;;;10.40;76.20;;;;;;4589796;19;20479;-32
2023/03/29 03:43:26;;;;;;;20.40;12.02;;;10.40;76.20;;;;;;4589923;19;20473;-34
2023/03/29 03:44:58;;;;;;;23.57;10.90;;;10.40;76.20;;;;;;4588254;19;20032;-34
2023/03/29 03:46:30;;;;;;;20.27;12.33;;;10.40;76.20;;;;;;4590387;19;20437;-33
2023/03/29 03:48:02;;;;;;;22.60;11.30;;;10.40;76.50;;;;;;4590362;19;20528;-31
2023/03/29 03:49:35;;;;;;;23.53;11.60;;;10.50;76.40;;;;;;4589722;19;20326;-33
2023/03/29 03:51:08;;;;;;;21.92;12.98;;;10.40;76.30;;;;;;4590401;19;20474;-32
2023/03/29 03:52:39;;;;;;;24.23;11.60;;;10.50;76.40;;;;;;4590700;19;20018;-34
2023/03/29 03:54:11;;;;;;;22.60;10.73;;;10.50;76.20;;;;;;4590677;19;21037;-34
2023/03/29 03:55:48;;;;;;;19.63;10.23;;;10.60;75.90;;;;;;4590502;19;20440;-33
2023/03/29 03:57:19;;;;;;;25.00;11.50;;;10.60;75.60;;;;;;4590663;19;21080;-32
2023/03/29 03:58:50;;;;;;;22.10;10.90;;;10.60;75.10;;;;;;4590697;19;20475;-33
2023/03/29 04:00:22;;;;;;;22.90;10.82;;;10.60;75.70;;;;;;4590575;19;20040;-34
2023/03/29 04:01:53;;;;;;;25.58;12.63;;;10.60;75.60;;;;;;4590763;19;20496;-33
2023/03/29 04:03:25;;;;;;;;;;;10.60;75.40;;;;;;4591694;19;20077;-33
2023/03/29 04:04:56;;;;;;;22.93;12.23;;;10.60;76.10;;;;;;4590423;19;20353;-33
2023/03/29 04:06:29;;;;;;;22.93;11.57;;;10.60;75.70;;;;;;4590483;19;20010;-33
2023/03/29 04:08:02;;;;;;;24.77;10.93;;;10.60;75.60;;;;;;4590346;19;20491;-35
2023/03/29 04:09:36;;;;;;;21.63;11.20;;;10.50;75.80;;;;;;4591253;19;20421;-32
2023/03/29 04:11:08;;;;;;;22.00;11.80;;;10.50;75.60;;;;;;4590195;19;20535;-35
2023/03/29 04:12:40;;;;;;;28.53;12.87;;;10.50;75.60;;;;;;4589362;19;20437;-33
2023/03/29 04:14:14;;;;;;;26.27;12.73;;;10.50;75.70;;;;;;4589129;19;20820;-32
2023/03/29 04:15:48;;;;;;;25.07;11.70;;;10.50;75.60;;;;;;4590841;19;21001;-33
2023/03/29 04:17:20;;;;;;;31.67;17.30;;;10.70;75.70;;;;;;4588932;19;20453;-33
2023/03/29 04:18:53;;;;;;;27.67;16.00;;;10.80;75.20;;;;;;4589352;19;20425;-34
2023/03/29 04:20:26;;;;;;;29.03;16.13;;;10.90;75.80;;;;;;4589905;19;21122;-33
2023/03/29 04:21:57;;;;;;;25.90;15.70;;;10.90;75.80;;;;;;4588176;19;21054;-33
2023/03/29 04:23:29;;;;;;;32.37;17.10;;;11.00;75.70;;;;;;4585605;19;20468;-33
2023/03/29 04:25:03;;;;;;;24.40;15.00;;;11.00;74.80;;;;;;4589035;19;20483;-33
2023/03/29 04:26:34;;;;;;;;;;;11.00;74.80;;;;;;4590923;19;20484;-34
2023/03/29 04:28:08;;;;;;;;;;;10.90;75.20;;;;;;4590744;19;19990;-34
2023/03/29 04:29:43;;;;;;;28.60;16.23;;;10.80;75.50;;;;;;4590110;19;19923;-32
2023/03/29 04:31:15;;;;;;;26.53;15.57;;;10.70;74.90;;;;;;4589823;19;20460;-32
2023/03/29 04:32:46;;;;;;;25.90;15.15;;;10.70;74.90;;;;;;4590492;19;20451;-32
2023/03/29 04:34:17;;;;;;;26.45;16.77;;;10.70;75.00;;;;;;4590356;19;20018;-34
2023/03/29 04:35:51;;;;;;;29.00;16.50;;;10.70;75.40;;;;;;4588846;19;20011;-33
2023/03/29 04:37:23;;;;;;;29.25;17.13;;;10.60;75.70;;;;;;4589305;19;20573;-32
2023/03/29 04:38:54;;;;;;;29.05;15.18;;;10.60;75.20;;;;;;4590226;19;20350;-30
2023/03/29 04:40:27;;;;;;;24.97;14.60;;;10.60;75.40;;;;;;4589783;19;20010;-35
2023/03/29 04:41:58;;;;;;;26.07;14.93;;;10.50;75.40;;;;;;4589800;19;20811;-33
2023/03/29 04:43:30;;;;;;;26.05;15.80;;;10.50;75.60;;;;;;4589117;19;20420;-33
2023/03/29 04:45:01;;;;;;;24.40;15.07;;;10.50;75.40;;;;;;4589514;19;19995;-31
2023/03/29 04:46:33;;;;;;;30.05;15.52;;;10.60;75.40;;;;;;4588517;19;20029;-32
2023/03/29 04:48:05;;;;;;;25.70;14.67;;;10.50;75.30;;;;;;4589124;19;20014;-33
2023/03/29 04:49:38;;;;;;;24.10;14.50;;;10.60;75.80;;;;;;4589867;19;20477;-33
2023/03/29 04:51:10;;;;;;;29.73;15.10;;;10.60;75.90;;;;;;4589933;19;20756;-33
2023/03/29 04:52:44;;;;;;;24.63;14.03;;;10.60;75.60;;;;;;4588532;19;20528;-34
2023/03/29 04:54:17;;;;;;;23.07;14.87;;;10.60;75.60;;;;;;4589270;19;20453;-34
2023/03/29 04:55:49;;;;;;;26.23;15.77;;;10.60;75.50;;;;;;4592687;19;20461;-32
2023/03/29 04:57:20;;;;;;;24.58;16.20;;;10.60;75.60;;;;;;4593344;19;20436;-32
2023/03/29 04:58:52;;;;;;;26.38;15.95;;;10.60;75.40;;;;;;4593938;19;20033;-32
2023/03/29 05:00:26;;;;;;;;;;;10.60;75.60;;;;;;4593925;19;20014;-34
2023/03/29 05:01:57;;;;;;;27.63;16.27;;;10.60;75.70;;;;;;4593148;19;19951;-33
2023/03/29 05:03:30;;;;;;;24.57;15.97;;;10.70;75.60;;;;;;4593906;19;20441;-32
2023/03/29 05:05:02;;;;;;;25.43;16.03;;;10.60;75.60;;;;;;4593209;19;20414;-32
2023/03/29 05:06:35;;;;;;;26.95;16.73;;;10.60;75.80;;;;;;4593489;19;20549;-32
2023/03/29 05:08:08;;;;;;;23.53;17.60;;;10.70;75.80;;;;;;4592481;19;19995;-33
2023/03/29 05:09:44;;;;;;;24.33;16.33;;;10.60;75.70;;;;;;4593848;19;20439;-33
2023/03/29 05:11:15;;;;;;;23.25;15.55;;;10.70;75.90;;;;;;4593859;19;20417;-33
2023/03/29 05:12:49;;;;;;;24.92;16.40;;;10.70;75.90;;;;;;4594457;19;20480;-34
2023/03/29 05:14:22;;;;;;;22.87;16.30;;;10.70;76.70;;;;;;4594400;19;20375;-32
2023/03/29 05:15:56;;;;;;;22.37;14.57;;;10.70;76.00;;;;;;4593826;19;20427;-36
2023/03/29 05:17:30;;;;;;;23.67;14.97;;;10.70;76.40;;;;;;4593780;19;20441;-34
2023/03/29 05:19:03;;;;;;;26.10;15.30;;;10.70;76.10;;;;;;4592945;19;20452;-32
2023/03/29 05:20:36;;;;;;;27.07;15.80;;;10.70;76.50;;;;;;4593580;19;20468;-35
2023/03/29 05:22:08;;;;;;;25.23;15.67;;;10.70;76.60;;;;;;4591882;19;20484;-34
2023/03/29 05:23:39;;;;;;;23.80;15.55;;;10.70;76.90;;;;;;4591868;19;20485;-34
2023/03/29 05:25:12;;;;;;;26.98;16.67;;;10.70;76.90;;;;;;4592804;19;20348;-35
2023/03/29 05:26:43;;;;;;;28.67;18.20;;;10.70;77.20;;;;;;4591541;19;20010;-36
2023/03/29 05:28:16;;;;;;;30.52;19.15;;;10.70;77.20;;;;;;4590663;19;20456;-32
2023/03/29 05:29:47;;;;;;;33.40;20.27;;;10.70;77.20;;;;;;4590737;19;20418;-33
2023/03/29 05:31:19;;;;;;;30.97;20.83;;;10.70;77.00;;;;;;4594195;19;20469;-33
2023/03/29 05:32:50;;;;;;;29.67;21.48;;;10.70;77.10;;;;;;4594480;19;20445;-31
2023/03/29 05:34:21;;;;;;;30.70;20.55;;;10.70;77.20;;;;;;4593706;19;20022;-32
2023/03/29 05:36:14;;;;;;;27.42;18.30;;;10.70;77.20;;;;;;4593372;19;20050;-33
2023/03/29 05:37:46;;;;;;;24.83;17.17;;;10.80;77.50;;;;;;4593892;19;20015;-33
2023/03/29 05:39:17;;;;;;;30.38;17.90;;;10.70;77.10;;;;;;4592236;19;20579;-32
2023/03/29 05:40:48;;;;;;;24.70;18.98;;;10.70;77.00;;;;;;4592399;19;20015;-33
2023/03/29 05:42:21;;;;;;;39.55;21.77;;;10.80;77.00;;;;;;4592638;19;20014;-32
2023/03/29 05:43:52;;;;;;;27.13;18.00;;;10.80;77.50;;;;;;4591274;19;20913;-36
2023/03/29 05:45:27;;;;;;;26.45;18.52;;;10.80;77.40;;;;;;4591581;19;20822;-33
2023/03/29 05:46:58;;;;;;;24.53;16.27;;;10.80;77.50;;;;;;4591512;19;20010;-33
2023/03/29 05:48:29;;;;;;;38.08;20.23;;;10.80;77.20;;;;;;4588194;19;20476;-32
2023/03/29 05:50:02;;;;;;;33.35;19.17;;;10.80;76.90;;;;;;4591784;19;20103;-32
2023/03/29 05:51:34;;;;;;;24.07;16.70;;;10.80;77.50;;;;;;4593936;19;20015;-36
2023/03/29 05:53:05;;;;;;;24.70;16.70;;;10.80;77.40;;;;;;4592231;19;20531;-33
2023/03/29 05:54:36;;;;;;;27.77;17.45;;;10.80;77.60;;;;;;4592432;19;20517;-34
2023/03/29 05:56:09;;;;;;;23.27;14.95;;;10.80;77.70;;;;;;4591181;19;20475;-36
2023/03/29 05:57:40;;;;;;;22.30;15.10;;;10.80;77.60;;;;;;4591725;19;20031;-34
2023/03/29 05:59:12;;;;;;;21.50;15.55;;;10.80;77.20;;;;;;4591025;19;20663;-33
2023/03/29 06:00:44;;;;;;;23.58;15.32;;;10.80;77.20;;;;;;4592511;19;20016;-34
2023/03/29 06:02:15;;;;;;;21.57;13.07;;;10.80;76.50;;;;;;4592324;19;20377;-35
2023/03/29 06:03:47;;;;;;;20.48;12.32;;;10.90;76.80;;;;;;4591537;19;20491;-33
2023/03/29 06:05:19;;;;;;;20.15;12.68;;;10.80;76.70;;;;;;4590862;19;20464;-33
2023/03/29 06:06:51;;;;;;;21.80;12.18;;;10.80;77.20;;;;;;4590197;19;20011;-34
2023/03/29 06:08:23;;;;;;;20.07;12.17;;;10.80;77.60;;;;;;4588051;19;20014;-36
2023/03/29 06:09:54;;;;;;;22.08;12.57;;;10.80;78.10;;;;;;4593473;19;20448;-35
2023/03/29 06:11:25;;;;;;;24.40;14.93;;;10.80;77.50;;;;;;4593007;19;20032;-33
2023/03/29 06:12:56;;;;;;;28.27;14.48;;;10.80;77.50;;;;;;4592722;19;20014;-32
2023/03/29 06:14:28;;;;;;;26.33;13.65;;;10.80;77.40;;;;;;4592436;19;20409;-35
2023/03/29 06:15:59;;;;;;;22.60;13.57;;;10.80;77.60;;;;;;4591952;19;20493;-33
2023/03/29 06:17:32;;;;;;;;;;;10.80;77.40;;;;;;4594241;19;20607;-33
2023/03/29 06:19:05;;;;;;;20.15;10.80;;;10.90;76.80;;;;;;4590480;19;19915;-32
2023/03/29 06:20:37;;;;;;;22.27;12.53;;;10.90;77.20;;;;;;4590136;19;20006;-33
2023/03/29 06:22:10;;;;;;;17.70;10.95;;;10.90;77.50;;;;;;4588899;19;20487;-33
2023/03/29 06:23:41;;;;;;;18.50;10.93;;;10.80;76.90;;;;;;4588334;19;20026;-34
2023/03/29 06:25:14;;;;;;;20.30;10.43;;;10.80;76.40;;;;;;4593021;19;20788;-33
2023/03/29 06:26:45;;;;;;;18.93;9.97;;;10.90;76.20;;;;;;4593326;19;20033;-32
2023/03/29 06:28:17;;;;;;;16.63;10.05;;;10.90;77.20;;;;;;4590942;19;20491;-33
2023/03/29 06:29:48;;;;;;;18.23;10.68;;;10.90;77.10;;;;;;4592218;19;20014;-34
2023/03/29 06:31:19;;;;;;;21.23;12.02;;;10.90;77.10;;;;;;4591288;19;20010;-32
2023/03/29 06:32:51;;;;;;;24.40;13.35;;;10.90;77.60;;;;;;4590997;19;20074;-32
2023/03/29 06:34:22;;;;;;;20.00;11.77;;;10.90;77.30;;;;;;4591089;19;20010;-33
2023/03/29 06:35:54;;;;;;;19.17;11.77;;;10.90;77.00;;;;;;4590611;19;20013;-32
2023/03/29 06:37:25;;;;;;;19.95;11.77;;;10.90;76.60;;;;;;4590825;19;20581;-30
2023/03/29 06:38:56;;;;;;;21.08;10.63;;;10.90;77.50;;;;;;4590016;19;20074;-30
2023/03/29 06:40:27;;;;;;;18.13;10.50;;;10.90;76.70;;;;;;4592671;19;20015;-31
2023/03/29 06:41:58;;;;;;;17.48;10.27;;;10.90;76.20;;;;;;4591143;19;20348;-30
2023/03/29 06:43:31;;;;;;;21.40;8.95;;;10.90;76.10;;;;;;4592583;19;20015;-30
2023/03/29 06:45:03;;;;;;;16.53;9.90;;;11.00;76.20;;;;;;4592347;19;20011;-32
2023/03/29 06:46:36;;;;;;;16.85;9.57;;;11.00;76.20;;;;;;4592056;19;21373;-30
2023/03/29 06:48:07;;;;;;;14.77;8.93;;;11.00;75.10;;;;;;4591284;19;20006;-30
2023/03/29 06:49:38;;;;;;;16.13;9.80;;;11.00;75.80;;;;;;4590478;19;20469;-32
2023/03/29 06:51:09;;;;;;;19.65;11.10;;;11.00;76.80;;;;;;4590828;19;20014;-31
2023/03/29 06:52:40;;;;;;;21.25;12.10;;;11.00;76.50;;;;;;4590484;19;20018;-30
2023/03/29 06:54:12;;;;;;;24.15;13.85;;;11.00;76.90;;;;;;4589428;19;20030;-31
2023/03/29 06:55:43;;;;;;;19.08;13.10;;;11.00;76.20;;;;;;4589738;19;20086;-30
2023/03/29 06:57:14;;;;;;;24.67;15.75;;;11.10;76.80;;;;;;4591348;19;20015;-31
2023/03/29 06:58:46;;;;;;;65.97;59.17;;;11.10;76.90;;;;;;4589790;19;20370;-31
2023/03/29 07:00:26;;;;;;;46.72;41.83;;;11.10;76.30;;;;;;4590265;19;20010;-34
2023/03/29 07:01:58;;;;;;;21.10;12.23;;;11.10;76.20;;;;;;4590025;19;20022;-32
2023/03/29 07:03:30;;;;;;;19.10;11.47;;;11.00;74.10;;;;;;4589606;19;20456;-33
2023/03/29 07:05:01;;;;;;;18.05;10.05;;;11.10;74.40;;;;;;4589993;19;20421;-33
2023/03/29 07:06:32;;;;;;;15.82;9.18;;;11.10;72.70;;;;;;4592928;19;20011;-33
2023/03/29 07:09:35;;;;;;;18.65;9.60;;;11.10;72.50;;;;;;4590586;19;20094;-33
2023/03/29 07:11:07;;;;;;;16.33;8.30;;;11.10;73.30;;;;;;4591345;19;20011;-32
2023/03/29 07:12:39;;;;;;;16.50;8.27;;;11.20;73.40;;;;;;4591204;19;20019;-35
2023/03/29 07:14:10;;;;;;;13.93;7.17;;;11.10;73.50;;;;;;4589091;19;20491;-33
2023/03/29 07:15:41;;;;;;;16.17;7.72;;;11.20;73.40;;;;;;4589805;19;20852;-32
2023/03/29 07:17:13;;;;;;;;;;;11.20;71.90;;;;;;4589894;19;20015;-37
2023/03/29 07:18:44;;;;;;;14.43;7.40;;;11.20;74.10;;;;;;4587745;19;20306;-31
2023/03/29 07:20:15;;;;;;;12.45;7.00;;;11.20;73.90;;;;;;4589613;19;20464;-33
2023/03/29 07:21:47;;;;;;;13.00;8.02;;;11.20;73.00;;;;;;4591114;19;20050;-37
2023/03/29 07:23:18;;;;;;;11.15;6.32;;;11.20;71.50;;;;;;4590334;19;20023;-33
2023/03/29 07:24:49;;;;;;;11.23;7.03;;;11.10;69.90;;;;;;4589977;19;20013;-33
2023/03/29 07:26:21;;;;;;;10.18;6.35;;;11.10;69.60;;;;;;4589799;19;20090;-34
2023/03/29 07:27:52;;;;;;;15.30;8.75;;;11.20;70.60;;;;;;4589691;19;20486;-32
2023/03/29 07:29:23;;;;;;;16.23;10.05;;;11.20;70.30;;;;;;4589819;19;20398;-33
2023/03/29 07:31:05;;;;;;;;;;;11.20;71.70;;;;;;4590637;19;20402;-33
2023/03/29 07:32:37;;;;;;;11.27;6.30;;;11.20;71.10;;;;;;4589571;19;19915;-34
2023/03/29 07:34:09;;;;;;;11.90;6.67;;;11.30;70.10;;;;;;4588240;19;20457;-31
2023/03/29 07:35:42;;;;;;;15.17;7.43;;;11.30;71.20;;;;;;4589074;19;20449;-32
2023/03/29 07:37:13;;;;;;;13.50;8.00;;;11.30;71.60;;;;;;4591766;19;20583;-34
2023/03/29 07:38:44;;;;;;;16.67;8.43;;;11.30;71.10;;;;;;4589805;19;20476;-34
2023/03/29 07:40:22;;;;;;;14.73;7.75;;;11.40;71.20;;;;;;4591328;19;20030;-32
2023/03/29 07:41:56;;;;;;;15.53;7.43;;;11.40;70.40;;;;;;4591611;19;20472;-33
2023/03/29 07:43:27;;;;;;;11.97;6.60;;;11.40;70.40;;;;;;4589474;19;20489;-35
2023/03/29 07:44:59;;;;;;;11.07;6.47;;;11.50;69.90;;;;;;4587892;19;20499;-33
2023/03/29 07:46:30;;;;;;;11.50;6.45;;;11.50;70.20;;;;;;4590991;19;20034;-33
2023/03/29 07:48:01;;;;;;;9.70;6.30;;;11.50;70.10;;;;;;4589186;19;20017;-33
2023/03/29 07:49:33;;;;;;;10.05;5.75;;;11.60;71.20;;;;;;4588323;19;20015;-33
2023/03/29 07:51:05;;;;;;;10.80;6.25;;;11.60;71.00;;;;;;4589699;19;20006;-33
2023/03/29 07:52:37;;;;;;;10.40;6.07;;;11.60;71.10;;;;;;4589890;19;20010;-33
2023/03/29 07:54:08;;;;;;;10.90;5.95;;;11.60;71.30;;;;;;4591140;19;20464;-33
2023/03/29 07:55:45;;;;;;;10.90;6.57;;;11.60;71.90;;;;;;4590879;19;20034;-33
2023/03/29 07:57:16;;;;;;;12.77;7.50;;;11.60;70.70;;;;;;4590859;19;20049;-35
2023/03/29 07:58:48;;;;;;;15.32;7.95;;;11.60;70.40;;;;;;4589640;19;20564;-35
2023/03/29 08:00:20;;;;;;;11.45;6.95;;;11.60;71.20;;;;;;4587549;19;20464;-35
2023/03/29 08:01:51;;;;;;;15.77;7.03;;;11.60;71.70;;;;;;4588237;19;20047;-35
2023/03/29 08:03:22;;;;;;;12.38;6.55;;;11.60;71.40;;;;;;4588147;19;20014;-34